sensor_id;sensor_type;location;lat;lon;timestamp;pressure;altitude;pressure_sealevel;temperature;humidity
5455;BME280;2750;49.050;9.250;2023-11-21T00:04:09;98179.34;;;11.23;95.59
5455;BME280;2750;49.050;9.250;2023-11-21T00:09:11;98176.13;;;11.20;96.24
5455;BME280;2750;49.050;9.250;2023-11-21T00:14:14;98176.50;;;11.28;94.87
5455;BME280;2750;49.050;9.250;2023-11-21T00:19:16;98167.59;;;11.46;93.93
5455;BME280;2750;49.050;9.250;2023-11-21T00:24:17;98169.47;;;11.58;93.39
5455;BME280;2750;49.050;9.250;2023-11-21T00:29:20;98169.94;;;11.50;93.87
5455;BME280;2750;49.050;9.250;2023-11-21T00:34:22;98161.03;;;11.55;94.17
5455;BME280;2750;49.050;9.250;2023-11-21T00:39:23;98172.97;;;11.15;95.41
5455;BME280;2750;49.050;9.250;2023-11-21T00:44:27;98179.56;;;10.90;97.87
5455;BME280;2750;49.050;9.250;2023-11-21T00:49:29;98164.66;;;11.38;95.33
5455;BME280;2750;49.050;9.250;2023-11-21T00:54:30;98160.00;;;11.43;95.47
5455;BME280;2750;49.050;9.250;2023-11-21T00:59:33;98160.75;;;11.45;95.21
5455;BME280;2750;49.050;9.250;2023-11-21T01:04:35;98167.53;;;11.47;95.05
5455;BME280;2750;49.050;9.250;2023-11-21T01:09:36;98153.88;;;11.58;94.13
5455;BME280;2750;49.050;9.250;2023-11-21T01:14:39;98167.06;;;11.55;94.71
5455;BME280;2750;49.050;9.250;2023-11-21T01:19:41;98164.09;;;11.47;95.36
5455;BME280;2750;49.050;9.250;2023-11-21T01:24:42;98162.81;;;11.68;94.82
5455;BME280;2750;49.050;9.250;2023-11-21T01:29:45;98169.53;;;11.42;95.15
5455;BME280;2750;49.050;9.250;2023-11-21T01:34:47;98165.03;;;11.60;94.62
5455;BME280;2750;49.050;9.250;2023-11-21T01:39:49;98162.88;;;11.67;94.36
5455;BME280;2750;49.050;9.250;2023-11-21T01:44:52;98152.03;;;11.74;94.32
5455;BME280;2750;49.050;9.250;2023-11-21T01:49:55;98161.69;;;11.86;93.69
5455;BME280;2750;49.050;9.250;2023-11-21T01:54:57;98160.75;;;11.73;94.11
5455;BME280;2750;49.050;9.250;2023-11-21T02:00:02;98160.75;;;11.73;94.46
5455;BME280;2750;49.050;9.250;2023-11-21T02:05:16;98170.03;;;11.77;94.21
5455;BME280;2750;49.050;9.250;2023-11-21T02:10:18;98160.38;;;11.93;93.16
5455;BME280;2750;49.050;9.250;2023-11-21T02:15:24;98162.09;;;11.80;94.22
5455;BME280;2750;49.050;9.250;2023-11-21T02:20:28;98158.66;;;11.80;94.12
5455;BME280;2750;49.050;9.250;2023-11-21T02:25:32;98161.06;;;11.83;94.44
5455;BME280;2750;49.050;9.250;2023-11-21T02:30:34;98158.94;;;11.75;94.81
5455;BME280;2750;49.050;9.250;2023-11-21T02:35:37;98154.63;;;11.32;96.07
5455;BME280;2750;49.050;9.250;2023-11-21T02:40:40;98162.13;;;11.22;97.76
5455;BME280;2750;49.050;9.250;2023-11-21T02:45:41;98164.09;;;11.47;97.11
5455;BME280;2750;49.050;9.250;2023-11-21T02:50:43;98160.47;;;11.64;96.69
5455;BME280;2750;49.050;9.250;2023-11-21T02:55:46;98147.66;;;11.46;96.70
5455;BME280;2750;49.050;9.250;2023-11-21T03:00:47;98149.88;;;11.67;95.86
5455;BME280;2750;49.050;9.250;2023-11-21T03:05:49;98150.28;;;11.75;95.32
5455;BME280;2750;49.050;9.250;2023-11-21T03:10:51;98158.16;;;11.59;96.22
5455;BME280;2750;49.050;9.250;2023-11-21T03:15:53;98154.44;;;11.77;95.76
5455;BME280;2750;49.050;9.250;2023-11-21T03:20:54;98158.44;;;11.69;95.83
5455;BME280;2750;49.050;9.250;2023-11-21T03:25:57;98161.59;;;12.02;95.69
5455;BME280;2750;49.050;9.250;2023-11-21T03:31:00;98166.38;;;12.08;94.75
5455;BME280;2750;49.050;9.250;2023-11-21T03:36:01;98160.47;;;12.33;93.90
5455;BME280;2750;49.050;9.250;2023-11-21T03:41:06;98165.19;;;12.40;93.17
5455;BME280;2750;49.050;9.250;2023-11-21T03:46:10;98164.97;;;12.17;93.88
5455;BME280;2750;49.050;9.250;2023-11-21T03:51:12;98158.53;;;11.95;94.37
5455;BME280;2750;49.050;9.250;2023-11-21T03:56:15;98168.00;;;11.68;95.75
5455;BME280;2750;49.050;9.250;2023-11-21T04:01:20;98171.50;;;11.39;97.29
5455;BME280;2750;49.050;9.250;2023-11-21T04:06:22;98170.03;;;11.63;97.05
5455;BME280;2750;49.050;9.250;2023-11-21T04:11:25;98177.44;;;11.69;96.60
5455;BME280;2750;49.050;9.250;2023-11-21T04:16:28;98170.09;;;11.62;97.09
5455;BME280;2750;49.050;9.250;2023-11-21T04:21:30;98175.16;;;11.79;96.46
5455;BME280;2750;49.050;9.250;2023-11-21T04:26:33;98178.22;;;11.57;97.24
5455;BME280;2750;49.050;9.250;2023-11-21T04:31:35;98176.88;;;11.50;98.00
5455;BME280;2750;49.050;9.250;2023-11-21T04:36:36;98178.03;;;11.74;96.75
5455;BME280;2750;49.050;9.250;2023-11-21T04:41:39;98177.22;;;11.88;96.43
5455;BME280;2750;49.050;9.250;2023-11-21T04:46:40;98187.50;;;11.89;95.89
5455;BME280;2750;49.050;9.250;2023-11-21T04:51:42;98184.28;;;11.72;96.16
5455;BME280;2750;49.050;9.250;2023-11-21T04:56:45;98185.16;;;11.71;96.31
5455;BME280;2750;49.050;9.250;2023-11-21T05:01:46;98190.13;;;11.75;95.47
5455;BME280;2750;49.050;9.250;2023-11-21T05:06:48;98188.34;;;11.76;95.34
5455;BME280;2750;49.050;9.250;2023-11-21T05:11:51;98195.13;;;11.78;94.98
5455;BME280;2750;49.050;9.250;2023-11-21T05:16:54;98190.53;;;12.10;94.19
5455;BME280;2750;49.050;9.250;2023-11-21T05:21:55;98199.81;;;12.00;94.47
5455;BME280;2750;49.050;9.250;2023-11-21T05:26:58;98206.78;;;12.14;94.38
5455;BME280;2750;49.050;9.250;2023-11-21T05:32:00;98207.19;;;12.34;93.97
5455;BME280;2750;49.050;9.250;2023-11-21T05:37:01;98208.78;;;12.37;93.81
5455;BME280;2750;49.050;9.250;2023-11-21T05:42:04;98222.91;;;12.33;93.51
5455;BME280;2750;49.050;9.250;2023-11-21T05:47:06;98225.84;;;12.14;93.87
5455;BME280;2750;49.050;9.250;2023-11-21T05:52:08;98232.59;;;12.17;94.41
5455;BME280;2750;49.050;9.250;2023-11-21T05:57:11;98236.72;;;12.07;95.22
5455;BME280;2750;49.050;9.250;2023-11-21T06:02:13;98245.34;;;12.07;95.17
5455;BME280;2750;49.050;9.250;2023-11-21T06:07:14;98241.31;;;12.30;94.70
5455;BME280;2750;49.050;9.250;2023-11-21T06:12:17;98243.34;;;12.39;93.38
5455;BME280;2750;49.050;9.250;2023-11-21T06:17:20;98250.06;;;12.29;93.75
5455;BME280;2750;49.050;9.250;2023-11-21T06:22:22;98264.00;;;12.14;94.31
5455;BME280;2750;49.050;9.250;2023-11-21T06:27:25;98266.88;;;11.95;95.79
5455;BME280;2750;49.050;9.250;2023-11-21T06:32:26;98270.59;;;12.05;95.67
5455;BME280;2750;49.050;9.250;2023-11-21T06:37:30;98272.56;;;11.87;96.29
5455;BME280;2750;49.050;9.250;2023-11-21T06:42:33;98277.28;;;11.51;98.34
5455;BME280;2750;49.050;9.250;2023-11-21T06:47:34;98278.44;;;11.61;98.07
5455;BME280;2750;49.050;9.250;2023-11-21T06:52:36;98292.88;;;11.51;98.92
5455;BME280;2750;49.050;9.250;2023-11-21T06:57:39;98292.41;;;11.88;97.37
5455;BME280;2750;49.050;9.250;2023-11-21T07:02:40;98293.16;;;11.90;96.85
5455;BME280;2750;49.050;9.250;2023-11-21T07:07:42;98304.47;;;12.04;96.04
5455;BME280;2750;49.050;9.250;2023-11-21T07:12:45;98303.84;;;12.14;96.16
5455;BME280;2750;49.050;9.250;2023-11-21T07:17:46;98309.13;;;12.41;95.46
5455;BME280;2750;49.050;9.250;2023-11-21T07:22:48;98325.66;;;12.68;94.69
5455;BME280;2750;49.050;9.250;2023-11-21T07:27:51;98331.38;;;12.73;94.17
5455;BME280;2750;49.050;9.250;2023-11-21T07:32:55;98334.81;;;12.74;94.94
5455;BME280;2750;49.050;9.250;2023-11-21T07:37:56;98342.47;;;13.04;94.15
5455;BME280;2750;49.050;9.250;2023-11-21T07:42:59;98343.31;;;13.04;93.92
5455;BME280;2750;49.050;9.250;2023-11-21T07:48:01;98356.59;;;13.00;94.18
5455;BME280;2750;49.050;9.250;2023-11-21T07:53:03;98347.69;;;13.18;93.53
5455;BME280;2750;49.050;9.250;2023-11-21T07:58:07;98352.19;;;13.28;92.84
5455;BME280;2750;49.050;9.250;2023-11-21T08:03:08;98354.72;;;13.30;91.79
5455;BME280;2750;49.050;9.250;2023-11-21T08:08:11;98360.78;;;13.43;92.24
5455;BME280;2750;49.050;9.250;2023-11-21T08:13:14;98371.78;;;13.61;91.86
5455;BME280;2750;49.050;9.250;2023-11-21T08:18:17;98370.38;;;13.82;90.99
5455;BME280;2750;49.050;9.250;2023-11-21T08:23:19;98371.44;;;13.92;90.77
5455;BME280;2750;49.050;9.250;2023-11-21T08:28:21;98366.22;;;14.05;90.53
5455;BME280;2750;49.050;9.250;2023-11-21T08:33:26;98374.28;;;13.62;90.58
5455;BME280;2750;49.050;9.250;2023-11-21T08:38:27;98380.19;;;13.78;90.62
5455;BME280;2750;49.050;9.250;2023-11-21T08:43:30;98382.78;;;13.78;90.80
5455;BME280;2750;49.050;9.250;2023-11-21T08:48:32;98378.78;;;13.73;90.92
5455;BME280;2750;49.050;9.250;2023-11-21T08:53:33;98382.25;;;13.73;90.61
5455;BME280;2750;49.050;9.250;2023-11-21T08:58:37;98385.81;;;13.85;91.13
5455;BME280;2750;49.050;9.250;2023-11-21T09:03:38;98400.38;;;13.62;90.81
5455;BME280;2750;49.050;9.250;2023-11-21T09:08:40;98398.13;;;13.96;90.82
5455;BME280;2750;49.050;9.250;2023-11-21T09:13:43;98397.63;;;13.91;91.17
5455;BME280;2750;49.050;9.250;2023-11-21T09:18:45;98413.41;;;14.27;90.03
5455;BME280;2750;49.050;9.250;2023-11-21T09:23:47;98409.41;;;14.48;89.58
5455;BME280;2750;49.050;9.250;2023-11-21T09:28:50;98411.97;;;14.86;89.00
5455;BME280;2750;49.050;9.250;2023-11-21T09:33:52;98428.03;;;15.05;87.12
5455;BME280;2750;49.050;9.250;2023-11-21T09:38:53;98426.91;;;15.33;86.32
5455;BME280;2750;49.050;9.250;2023-11-21T09:43:57;98435.88;;;14.93;87.34
5455;BME280;2750;49.050;9.250;2023-11-21T09:49:02;98431.41;;;14.95;86.49
5455;BME280;2750;49.050;9.250;2023-11-21T09:54:08;98435.59;;;14.47;87.73
5455;BME280;2750;49.050;9.250;2023-11-21T09:59:14;98438.84;;;14.11;88.25
5455;BME280;2750;49.050;9.250;2023-11-21T10:04:16;98443.81;;;13.76;91.03
5455;BME280;2750;49.050;9.250;2023-11-21T10:09:17;98445.03;;;13.70;91.81
5455;BME280;2750;49.050;9.250;2023-11-21T10:14:24;98450.44;;;13.67;91.44
5455;BME280;2750;49.050;9.250;2023-11-21T10:19:29;98446.88;;;13.41;92.44
5455;BME280;2750;49.050;9.250;2023-11-21T10:24:32;98448.47;;;13.44;92.91
5455;BME280;2750;49.050;9.250;2023-11-21T10:29:35;98442.75;;;13.78;92.04
5455;BME280;2750;49.050;9.250;2023-11-21T10:34:37;98442.84;;;13.50;92.14
5455;BME280;2750;49.050;9.250;2023-11-21T10:39:39;98437.34;;;13.28;93.51
5455;BME280;2750;49.050;9.250;2023-11-21T10:44:42;98443.69;;;14.17;91.12
5455;BME280;2750;49.050;9.250;2023-11-21T10:49:48;98449.38;;;14.61;88.41
5455;BME280;2750;49.050;9.250;2023-11-21T10:54:49;98453.16;;;14.70;88.53
5455;BME280;2750;49.050;9.250;2023-11-21T10:59:54;98453.47;;;14.91;88.49
5455;BME280;2750;49.050;9.250;2023-11-21T11:04:57;98452.94;;;14.86;85.20
5455;BME280;2750;49.050;9.250;2023-11-21T11:09:59;98455.53;;;14.60;86.53
5455;BME280;2750;49.050;9.250;2023-11-21T11:15:03;98450.06;;;14.25;86.79
5455;BME280;2750;49.050;9.250;2023-11-21T11:20:06;98453.56;;;14.39;87.80
5455;BME280;2750;49.050;9.250;2023-11-21T11:25:28;98460.47;;;14.90;86.97
5455;BME280;2750;49.050;9.250;2023-11-21T11:30:41;98462.31;;;15.13;86.16
5455;BME280;2750;49.050;9.250;2023-11-21T11:35:53;98455.56;;;15.22;86.35
5455;BME280;2750;49.050;9.250;2023-11-21T11:41:01;98461.28;;;14.91;86.87
5455;BME280;2750;49.050;9.250;2023-11-21T11:46:05;98463.06;;;14.40;88.10
5455;BME280;2750;49.050;9.250;2023-11-21T11:51:11;98458.31;;;14.32;88.32
5455;BME280;2750;49.050;9.250;2023-11-21T11:56:25;98470.31;;;14.22;87.90
5455;BME280;2750;49.050;9.250;2023-11-21T12:01:29;98465.13;;;13.68;91.37
5455;BME280;2750;49.050;9.250;2023-11-21T12:06:33;98477.00;;;13.19;93.13
5455;BME280;2750;49.050;9.250;2023-11-21T12:11:36;98478.13;;;12.72;94.96
5455;BME280;2750;49.050;9.250;2023-11-21T12:16:39;98485.06;;;12.58;95.03
5455;BME280;2750;49.050;9.250;2023-11-21T12:21:43;98491.09;;;12.44;95.54
5455;BME280;2750;49.050;9.250;2023-11-21T12:26:45;98483.34;;;11.98;95.64
5455;BME280;2750;49.050;9.250;2023-11-21T12:31:49;98500.63;;;12.00;95.60
5455;BME280;2750;49.050;9.250;2023-11-21T12:36:51;98485.47;;;12.22;96.02
5455;BME280;2750;49.050;9.250;2023-11-21T12:41:54;98486.72;;;12.59;94.31
5455;BME280;2750;49.050;9.250;2023-11-21T12:46:59;98494.81;;;12.10;94.42
5455;BME280;2750;49.050;9.250;2023-11-21T12:52:01;98496.13;;;11.87;95.52
5455;BME280;2750;49.050;9.250;2023-11-21T12:57:04;98495.09;;;11.90;94.48
5455;BME280;2750;49.050;9.250;2023-11-21T13:02:12;98513.47;;;12.03;94.24
5455;BME280;2750;49.050;9.250;2023-11-21T13:07:15;98511.13;;;12.28;93.90
5455;BME280;2750;49.050;9.250;2023-11-21T13:12:17;98515.63;;;12.54;93.87
5455;BME280;2750;49.050;9.250;2023-11-21T13:17:26;98523.50;;;12.82;93.00
5455;BME280;2750;49.050;9.250;2023-11-21T13:22:28;98531.16;;;12.56;92.22
5455;BME280;2750;49.050;9.250;2023-11-21T13:27:31;98529.72;;;12.80;92.23
5455;BME280;2750;49.050;9.250;2023-11-21T13:32:35;98523.38;;;12.70;91.65
5455;BME280;2750;49.050;9.250;2023-11-21T13:37:36;98528.03;;;12.79;91.92
5455;BME280;2750;49.050;9.250;2023-11-21T13:42:38;98532.28;;;12.66;91.89
5455;BME280;2750;49.050;9.250;2023-11-21T13:47:40;98544.97;;;12.42;92.75
5455;BME280;2750;49.050;9.250;2023-11-21T13:52:42;98554.09;;;12.79;92.82
5455;BME280;2750;49.050;9.250;2023-11-21T13:57:44;98550.91;;;12.74;92.28
5455;BME280;2750;49.050;9.250;2023-11-21T14:02:50;98574.31;;;12.60;91.20
5455;BME280;2750;49.050;9.250;2023-11-21T14:07:52;98572.81;;;12.26;92.20
5455;BME280;2750;49.050;9.250;2023-11-21T14:12:53;98573.66;;;12.26;91.99
5455;BME280;2750;49.050;9.250;2023-11-21T14:17:57;98581.41;;;12.42;91.90
5455;BME280;2750;49.050;9.250;2023-11-21T14:23:00;98585.97;;;12.23;92.32
5455;BME280;2750;49.050;9.250;2023-11-21T14:28:01;98583.13;;;12.87;91.35
5455;BME280;2750;49.050;9.250;2023-11-21T14:33:05;98589.66;;;12.64;91.24
5455;BME280;2750;49.050;9.250;2023-11-21T14:38:06;98600.59;;;12.25;90.98
5455;BME280;2750;49.050;9.250;2023-11-21T14:43:08;98612.69;;;12.26;91.55
5455;BME280;2750;49.050;9.250;2023-11-21T14:48:10;98619.09;;;12.35;90.59
5455;BME280;2750;49.050;9.250;2023-11-21T14:53:16;98618.22;;;12.05;91.35
5455;BME280;2750;49.050;9.250;2023-11-21T14:58:37;98630.91;;;11.95;91.57
5455;BME280;2750;49.050;9.250;2023-11-21T15:03:41;98635.75;;;12.17;91.33
5455;BME280;2750;49.050;9.250;2023-11-21T15:08:50;98642.53;;;12.19;91.27
5455;BME280;2750;49.050;9.250;2023-11-21T15:13:57;98649.66;;;12.77;90.17
5455;BME280;2750;49.050;9.250;2023-11-21T15:19:01;98645.91;;;12.97;88.63
5455;BME280;2750;49.050;9.250;2023-11-21T15:24:04;98648.25;;;13.01;87.91
5455;BME280;2750;49.050;9.250;2023-11-21T15:29:06;98663.19;;;12.83;88.04
5455;BME280;2750;49.050;9.250;2023-11-21T15:34:09;98661.47;;;12.53;89.28
5455;BME280;2750;49.050;9.250;2023-11-21T15:39:11;98677.59;;;12.28;90.22
5455;BME280;2750;49.050;9.250;2023-11-21T15:44:12;98678.69;;;11.92;91.26
5455;BME280;2750;49.050;9.250;2023-11-21T15:49:15;98687.31;;;11.77;92.12
5455;BME280;2750;49.050;9.250;2023-11-21T15:54:20;98685.78;;;11.73;92.59
5455;BME280;2750;49.050;9.250;2023-11-21T15:59:21;98686.56;;;11.58;92.74
5455;BME280;2750;49.050;9.250;2023-11-21T16:04:25;98687.47;;;11.07;94.71
5455;BME280;2750;49.050;9.250;2023-11-21T16:09:28;98701.44;;;11.04;94.72
5455;BME280;2750;49.050;9.250;2023-11-21T16:14:31;98707.22;;;10.92;95.00
5455;BME280;2750;49.050;9.250;2023-11-21T16:19:38;98710.94;;;10.52;96.72
5455;BME280;2750;49.050;9.250;2023-11-21T16:24:40;98712.03;;;10.47;96.62
5455;BME280;2750;49.050;9.250;2023-11-21T16:29:42;98719.69;;;10.31;97.23
5455;BME280;2750;49.050;9.250;2023-11-21T16:34:45;98726.13;;;10.60;96.76
5455;BME280;2750;49.050;9.250;2023-11-21T16:39:46;98723.97;;;10.87;95.59
5455;BME280;2750;49.050;9.250;2023-11-21T16:44:48;98734.72;;;10.96;95.75
5455;BME280;2750;49.050;9.250;2023-11-21T16:49:52;98746.19;;;11.10;94.69
5455;BME280;2750;49.050;9.250;2023-11-21T16:54:53;98761.78;;;11.44;94.27
5455;BME280;2750;49.050;9.250;2023-11-21T16:59:55;98753.94;;;11.45;93.26
5455;BME280;2750;49.050;9.250;2023-11-21T17:04:58;98760.56;;;11.34;94.24
5455;BME280;2750;49.050;9.250;2023-11-21T17:10:00;98772.31;;;11.07;95.06
5455;BME280;2750;49.050;9.250;2023-11-21T17:15:03;98783.56;;;11.07;95.40
5455;BME280;2750;49.050;9.250;2023-11-21T17:20:09;98787.69;;;11.28;95.74
5455;BME280;2750;49.050;9.250;2023-11-21T17:25:11;98793.34;;;11.54;94.77
5455;BME280;2750;49.050;9.250;2023-11-21T17:30:13;98792.22;;;11.76;93.84
5455;BME280;2750;49.050;9.250;2023-11-21T17:35:16;98806.91;;;12.10;93.21
5455;BME280;2750;49.050;9.250;2023-11-21T17:40:17;98815.44;;;12.29;92.97
5455;BME280;2750;49.050;9.250;2023-11-21T17:45:20;98817.34;;;12.26;92.29
5455;BME280;2750;49.050;9.250;2023-11-21T17:50:23;98818.63;;;12.02;92.96
5455;BME280;2750;49.050;9.250;2023-11-21T17:55:24;98825.06;;;11.94;92.88
5455;BME280;2750;49.050;9.250;2023-11-21T18:00:26;98831.97;;;11.95;92.89
5455;BME280;2750;49.050;9.250;2023-11-21T18:05:29;98841.13;;;11.85;93.23
5455;BME280;2750;49.050;9.250;2023-11-21T18:10:31;98847.50;;;11.80;93.40
5455;BME280;2750;49.050;9.250;2023-11-21T18:15:33;98837.78;;;11.83;93.55
5455;BME280;2750;49.050;9.250;2023-11-21T18:20:36;98846.03;;;11.91;92.80
5455;BME280;2750;49.050;9.250;2023-11-21T18:25:37;98856.56;;;11.88;92.84
5455;BME280;2750;49.050;9.250;2023-11-21T18:30:39;98863.59;;;12.04;92.19
5455;BME280;2750;49.050;9.250;2023-11-21T18:35:42;98867.25;;;12.17;91.97
5455;BME280;2750;49.050;9.250;2023-11-21T18:40:45;98869.00;;;12.16;92.03
5455;BME280;2750;49.050;9.250;2023-11-21T18:45:46;98875.84;;;12.02;91.79
5455;BME280;2750;49.050;9.250;2023-11-21T18:50:50;98884.66;;;11.99;92.41
5455;BME280;2750;49.050;9.250;2023-11-21T18:55:54;98884.09;;;11.92;92.34
5455;BME280;2750;49.050;9.250;2023-11-21T19:00:56;98896.31;;;12.08;92.07
5455;BME280;2750;49.050;9.250;2023-11-21T19:05:59;98914.00;;;12.01;92.24
5455;BME280;2750;49.050;9.250;2023-11-21T19:11:01;98910.66;;;11.99;91.92
5455;BME280;2750;49.050;9.250;2023-11-21T19:16:02;98920.97;;;12.18;91.65
5455;BME280;2750;49.050;9.250;2023-11-21T19:21:11;98927.06;;;12.34;90.95
5455;BME280;2750;49.050;9.250;2023-11-21T19:26:13;98938.69;;;12.44;90.18
5455;BME280;2750;49.050;9.250;2023-11-21T19:31:16;98940.00;;;12.35;90.18
5455;BME280;2750;49.050;9.250;2023-11-21T19:36:19;98942.53;;;12.37;90.53
5455;BME280;2750;49.050;9.250;2023-11-21T19:41:21;98948.56;;;12.37;89.52
5455;BME280;2750;49.050;9.250;2023-11-21T19:46:23;98955.16;;;12.10;90.11
5455;BME280;2750;49.050;9.250;2023-11-21T19:51:26;98960.66;;;12.04;90.91
5455;BME280;2750;49.050;9.250;2023-11-21T19:56:27;98955.06;;;12.12;90.45
5455;BME280;2750;49.050;9.250;2023-11-21T20:01:29;98966.69;;;12.05;90.76
5455;BME280;2750;49.050;9.250;2023-11-21T20:06:32;98964.03;;;12.06;90.42
5455;BME280;2750;49.050;9.250;2023-11-21T20:11:33;98969.59;;;12.16;90.29
5455;BME280;2750;49.050;9.250;2023-11-21T20:16:38;98980.09;;;11.97;90.43
5455;BME280;2750;49.050;9.250;2023-11-21T20:21:41;98992.47;;;11.92;90.52
5455;BME280;2750;49.050;9.250;2023-11-21T20:26:43;98997.75;;;12.08;89.86
5455;BME280;2750;49.050;9.250;2023-11-21T20:31:45;99001.72;;;11.97;90.55
5455;BME280;2750;49.050;9.250;2023-11-21T20:36:48;99011.88;;;11.85;90.96
5455;BME280;2750;49.050;9.250;2023-11-21T20:41:50;99020.41;;;12.06;90.61
5455;BME280;2750;49.050;9.250;2023-11-21T20:46:51;99034.25;;;12.06;90.39
5455;BME280;2750;49.050;9.250;2023-11-21T20:51:55;99026.03;;;11.96;90.80
5455;BME280;2750;49.050;9.250;2023-11-21T20:56:56;99016.91;;;12.07;90.59
5455;BME280;2750;49.050;9.250;2023-11-21T21:01:57;99023.06;;;12.04;90.59
5455;BME280;2750;49.050;9.250;2023-11-21T21:07:00;99028.94;;;12.26;89.32
5455;BME280;2750;49.050;9.250;2023-11-21T21:12:02;99026.56;;;12.22;88.91
5455;BME280;2750;49.050;9.250;2023-11-21T21:17:04;99037.91;;;12.38;88.98
5455;BME280;2750;49.050;9.250;2023-11-21T21:22:07;99033.44;;;12.40;88.77
5455;BME280;2750;49.050;9.250;2023-11-21T21:27:08;99037.75;;;12.41;88.82
5455;BME280;2750;49.050;9.250;2023-11-21T21:32:10;99041.22;;;12.57;88.51
5455;BME280;2750;49.050;9.250;2023-11-21T21:37:13;99042.00;;;12.42;88.16
5455;BME280;2750;49.050;9.250;2023-11-21T21:42:14;99040.47;;;12.21;89.05
5455;BME280;2750;49.050;9.250;2023-11-21T21:47:16;99046.19;;;12.10;89.52
5455;BME280;2750;49.050;9.250;2023-11-21T21:52:19;99040.22;;;11.72;90.70
5455;BME280;2750;49.050;9.250;2023-11-21T21:57:20;99048.13;;;11.69;92.10
5455;BME280;2750;49.050;9.250;2023-11-21T22:02:22;99053.63;;;11.44;92.70
5455;BME280;2750;49.050;9.250;2023-11-21T22:07:24;99062.31;;;11.25;93.19
5455;BME280;2750;49.050;9.250;2023-11-21T22:12:26;99058.13;;;11.41;93.19
5455;BME280;2750;49.050;9.250;2023-11-21T22:17:28;99053.47;;;11.29;93.77
5455;BME280;2750;49.050;9.250;2023-11-21T22:22:31;99054.81;;;11.37;94.03
5455;BME280;2750;49.050;9.250;2023-11-21T22:27:33;99063.56;;;11.35;94.12
5455;BME280;2750;49.050;9.250;2023-11-21T22:32:35;99078.25;;;10.97;96.48
5455;BME280;2750;49.050;9.250;2023-11-21T22:37:37;99080.84;;;11.17;96.13
5455;BME280;2750;49.050;9.250;2023-11-21T22:42:39;99081.66;;;11.38;95.40
5455;BME280;2750;49.050;9.250;2023-11-21T22:47:41;99084.31;;;11.55;94.79
5455;BME280;2750;49.050;9.250;2023-11-21T22:52:44;99108.75;;;9.40;99.46
5455;BME280;2750;49.050;9.250;2023-11-21T22:57:46;99108.00;;;8.63;100.00
5455;BME280;2750;49.050;9.250;2023-11-21T23:02:48;99120.19;;;8.06;100.00
5455;BME280;2750;49.050;9.250;2023-11-21T23:07:51;99138.50;;;7.98;100.00
5455;BME280;2750;49.050;9.250;2023-11-21T23:12:52;99142.19;;;7.62;100.00
5455;BME280;2750;49.050;9.250;2023-11-21T23:17:56;99153.31;;;7.64;100.00
5455;BME280;2750;49.050;9.250;2023-11-21T23:22:58;99168.19;;;7.56;100.00
5455;BME280;2750;49.050;9.250;2023-11-21T23:28:00;99183.97;;;7.13;100.00
5455;BME280;2750;49.050;9.250;2023-11-21T23:33:02;99189.56;;;7.29;100.00
5455;BME280;2750;49.050;9.250;2023-11-21T23:38:05;99198.44;;;7.20;100.00
5455;BME280;2750;49.050;9.250;2023-11-21T23:43:07;99196.44;;;6.97;100.00
5455;BME280;2750;49.050;9.250;2023-11-21T23:48:08;99188.66;;;6.99;100.00
5455;BME280;2750;49.050;9.250;2023-11-21T23:53:11;99199.25;;;6.88;99.74
5455;BME280;2750;49.050;9.250;2023-11-21T23:58:13;99197.16;;;7.02;99.22
